Historique des mesures à Cassis (13260), France
Quotidien Résumé Juillet 1, 2017 Unités:  Métrique    US   Métrique/US
« Précédent (Jour)
Suivant (Jour) »
Quotidien Hebdomadaire Mensuel Annuel Période au choix
  Maximum: Minimum: Moyenne:
Température: TemperatureC °C 17.0 °C 19.6 °C
Point de rosée: DewpointC °C 9.8 °C 10.7 °C
Humidité: Humidity % 44 % 54 %
Vitesse du vent: 0 km/h 6.4 km/h 23.8 km/h
Rafales: 0 km/h - -
Vent:- - WSW
Pression: PressurehPa hPa 1010.7 hPa -
Précipitations: 0.0 mm    
Historical Graphs
 
 
Mesures pour : Juillet 1, 2017
Heure Temperature Point de rosée Pression Vent Vitesse du vent Rafales Humidité Pluie (par heure) Conditions
TemperatureC °C DewpointC °C PressurehPa hPa Calm     Humidity % HourlyPrecipMM mm SoftwareType W/m2
00:10 19.2 °C 11.5 °C 1010.7 hPa NNW 6.4 km/h 32.3 km/h 61 % 0.0 mm open2300-1.11 W/m2
01:10 18.8 °C 11.1 °C 1011.1 hPa North 16.3 km/h 17.9 km/h 61 % 0.0 mm open2300-1.11 W/m2
02:10 18.3 °C 11.6 °C 1011.1 hPa WNW 30.1 km/h 60.3 km/h 65 % 0.0 mm open2300-1.11 W/m2
03:11 17.8 °C 10.9 °C 1011.1 hPa NW 31.4 km/h 33.6 km/h 64 % 0.0 mm open2300-1.11 W/m2
04:10 17.7 °C 11.0 °C 1010.7 hPa NNW 25.4 km/h 25.4 km/h 65 % 0.0 mm open2300-1.11 W/m2
05:10 17.3 °C 11.3 °C 1010.7 hPa NW 26.2 km/h 26.2 km/h 68 % 0.0 mm open2300-1.11 W/m2
06:10 17.1 °C 11.1 °C 1011.1 hPa NNW 14.5 km/h 14.5 km/h 68 % 0.0 mm open2300-1.11 W/m2
07:11 17.0 °C 11.1 °C 1011.7 hPa NNW 23.8 km/h 23.8 km/h 68 % 0.0 mm open2300-1.11 W/m2
08:10 18.3 °C 10.1 °C 1011.7 hPa NNW 19.6 km/h 36.5 km/h 59 % 0.0 mm open2300-1.11 W/m2
09:10 18.5 °C 9.8 °C 1012.1 hPa NW 38.8 km/h 46.3 km/h 57 % 0.0 mm open2300-1.11 W/m2
10:10 20.4 °C 10.2 °C 1012.8 hPa NW 16.9 km/h 21.6 km/h 52 % 0.0 mm open2300-1.11 W/m2
11:10 22.1 °C 10.6 °C 1012.8 hPa NNE 8 km/h 54.4 km/h 48 % 0.0 mm open2300-1.11 W/m2
12:11 23.1 °C 10.8 °C 1012.4 hPa WNW 45.4 km/h 45.4 km/h 46 % 0.0 mm open2300-1.11 W/m2
13:11 21.7 °C 11.9 °C 1012.4 hPa WNW 47.3 km/h 69.4 km/h 54 % 0.0 mm open2300-1.11 W/m2
14:11 21.9 °C 11.8 °C 1012.8 hPa NW 30.7 km/h 61.3 km/h 53 % 0.0 mm open2300-1.11 W/m2
15:11 22.2 °C 12.1 °C 1012.4 hPa NW 45.9 km/h 52.8 km/h 53 % 0.0 mm open2300-1.11 W/m2
16:10 22.3 °C 11.9 °C 1012.1 hPa North 17.4 km/h 42.6 km/h 52 % 0.0 mm open2300-1.11 W/m2
17:11 23.2 °C 12.5 °C 1011.4 hPa NNW 15 km/h 53.3 km/h 51 % 0.0 mm open2300-1.11 W/m2
18:10 23.1 °C 12.9 °C 1011.1 hPa West 49.7 km/h 62.6 km/h 53 % 0.0 mm open2300-1.11 W/m2
19:11 23.2 °C 12.2 °C 1010.7 hPa WNW 23 km/h 57.9 km/h 50 % 0.0 mm open2300-1.11 W/m2
20:10 23.6 °C 10.6 °C 1010.7 hPa North 10.9 km/h 35.2 km/h 44 % 0.0 mm open2300-1.11 W/m2
21:11 22.3 °C 10.1 °C 1011.4 hPa North 19.6 km/h 37.5 km/h 46 % 0.0 mm open2300-1.11 W/m2
22:10 21.2 °C 10.1 °C 1011.7 hPa NW 16.3 km/h 33.2 km/h 49 % 0.0 mm open2300-1.11 W/m2
23:10 20.8 °C 10.0 °C 1011.7 hPa NNE 17.4 km/h 33.2 km/h 50 % 0.0 mm open2300-1.11 W/m2
Observations météo à CASSIS
WU-History script by Weather Underground - 1 mb